createdAt,value
2017-12-02T00:00:52.851Z,0
2017-12-02T00:02:02.845Z,0
2017-12-02T00:03:12.298Z,0
2017-12-02T00:04:22.299Z,0
2017-12-02T00:05:32.313Z,0
2017-12-02T00:06:41.792Z,0
2017-12-02T00:07:51.833Z,0
2017-12-02T00:09:01.557Z,0
2017-12-02T00:10:11.061Z,0
2017-12-02T00:11:20.971Z,0
2017-12-02T00:12:30.693Z,0
2017-12-02T00:13:40.685Z,0
2017-12-02T00:14:50.669Z,0
2017-12-02T00:15:59.938Z,0
2017-12-02T00:17:09.709Z,0
2017-12-02T00:18:19.309Z,0
2017-12-02T00:19:29.304Z,0
2017-12-02T00:20:39.479Z,0
2017-12-02T00:21:49.478Z,0
2017-12-02T00:22:59.469Z,0
2017-12-02T00:24:08.932Z,0
2017-12-02T00:25:18.996Z,0
2017-12-02T00:26:28.726Z,0
2017-12-02T00:27:38.727Z,0
2017-12-02T00:28:48.463Z,0
2017-12-02T00:29:58.182Z,0
2017-12-02T00:31:07.907Z,0
2017-12-02T00:32:17.376Z,0
2017-12-02T00:33:27.367Z,0
2017-12-02T00:34:37.098Z,0
2017-12-02T00:35:46.559Z,0
2017-12-02T00:36:56.541Z,0
2017-12-02T00:38:06.314Z,0
2017-12-02T00:39:16.308Z,0
2017-12-02T00:40:26.310Z,0
2017-12-02T00:41:36.153Z,0
2017-12-02T00:42:46.155Z,0
2017-12-02T00:43:55.900Z,0
2017-12-02T00:45:05.355Z,0
2017-12-02T00:46:15.370Z,0
2017-12-02T00:47:25.095Z,0
2017-12-02T00:48:34.328Z,0
2017-12-02T00:49:44.065Z,0
2017-12-02T00:50:54.074Z,0
2017-12-02T00:52:03.816Z,0
2017-12-02T00:53:13.958Z,0
2017-12-02T00:54:23.707Z,0
2017-12-02T00:55:33.460Z,0
2017-12-02T00:56:43.471Z,0
2017-12-02T00:57:53.520Z,0
2017-12-02T00:59:03.266Z,0
2017-12-02T01:00:12.761Z,0
2017-12-02T01:01:22.860Z,0
2017-12-02T01:02:32.321Z,0
2017-12-02T01:03:42.310Z,0
2017-12-02T01:04:52.027Z,0
2017-12-02T01:06:01.758Z,0
2017-12-02T01:07:11.759Z,0
2017-12-02T01:08:21.770Z,0
2017-12-02T01:09:31.793Z,0
2017-12-02T01:10:41.775Z,0
2017-12-02T01:11:51.497Z,0
2017-12-02T01:13:01.480Z,0
2017-12-02T01:14:11.485Z,0
2017-12-02T01:15:21.523Z,0
2017-12-02T01:16:31.536Z,0
2017-12-02T01:17:41.724Z,0
2017-12-02T01:18:51.853Z,0
2017-12-02T01:20:01.310Z,0
2017-12-02T01:21:11.077Z,0
2017-12-02T01:22:21.127Z,0
2017-12-02T01:23:31.148Z,0
2017-12-02T01:24:40.867Z,0
2017-12-02T01:25:50.593Z,0
2017-12-02T01:27:00.580Z,0
2017-12-02T01:28:09.822Z,0
2017-12-02T01:29:19.274Z,0
2017-12-02T01:30:29.267Z,0
2017-12-02T01:31:38.989Z,0
2017-12-02T01:32:48.726Z,0
2017-12-02T01:33:58.722Z,0
2017-12-02T01:35:08.720Z,0
2017-12-02T01:36:18.715Z,0
2017-12-02T01:37:28.448Z,0
2017-12-02T01:38:38.471Z,0
2017-12-02T01:39:47.959Z,0
2017-12-02T01:40:57.698Z,0
2017-12-02T01:42:07.685Z,0
2017-12-02T01:43:17.155Z,0
2017-12-02T01:44:26.887Z,0
2017-12-02T01:45:36.694Z,0
2017-12-02T01:46:46.498Z,0
2017-12-02T01:47:56.517Z,0
2017-12-02T01:49:06.239Z,0
2017-12-02T01:50:16.374Z,0
2017-12-02T01:51:25.925Z,0
2017-12-02T01:52:35.993Z,0
2017-12-02T01:53:45.715Z,0
2017-12-02T01:54:55.711Z,0
2017-12-02T01:56:05.699Z,0
2017-12-02T01:57:15.156Z,0
2017-12-02T01:58:25.154Z,0
2017-12-02T01:59:35.397Z,0
2017-12-02T02:00:45.392Z,0
2017-12-02T02:01:55.131Z,0
2017-12-02T02:03:04.890Z,0
2017-12-02T02:04:14.908Z,0
2017-12-02T02:05:24.649Z,0
2017-12-02T02:06:34.636Z,0
2017-12-02T02:07:44.655Z,0
2017-12-02T02:08:54.125Z,0
2017-12-02T02:10:03.865Z,0
2017-12-02T02:11:14.031Z,0
2017-12-02T02:12:23.791Z,0
2017-12-02T02:13:33.858Z,0
2017-12-02T02:14:43.901Z,0
2017-12-02T02:15:53.392Z,0
2017-12-02T02:17:02.864Z,0
2017-12-02T02:18:12.946Z,0
2017-12-02T02:19:22.684Z,0
2017-12-02T02:20:32.424Z,0
2017-12-02T02:21:42.422Z,0
2017-12-02T02:22:52.169Z,0
2017-12-02T02:24:01.662Z,0
2017-12-02T02:25:11.156Z,0
2017-12-02T02:26:20.714Z,0
2017-12-02T02:27:30.457Z,0
2017-12-02T02:28:40.198Z,0
2017-12-02T02:29:50.205Z,0
2017-12-02T02:31:00.203Z,0
2017-12-02T02:32:10.227Z,0
2017-12-02T02:33:20.234Z,0
2017-12-02T02:34:30.005Z,0
2017-12-02T02:35:39.753Z,0
2017-12-02T02:36:49.499Z,0
2017-12-02T02:37:58.707Z,0
2017-12-02T02:39:08.432Z,0
2017-12-02T02:40:18.436Z,0
2017-12-02T02:41:28.178Z,0
2017-12-02T02:42:37.644Z,0
2017-12-02T02:43:47.652Z,0
2017-12-02T02:44:57.143Z,0
2017-12-02T02:46:06.878Z,0
2017-12-02T02:47:16.617Z,0
2017-12-02T02:48:26.342Z,0
2017-12-02T02:49:36.092Z,0
2017-12-02T02:50:45.831Z,0
2017-12-02T02:51:55.854Z,0
2017-12-02T02:53:05.877Z,0
2017-12-02T02:54:15.882Z,0
2017-12-02T02:55:25.343Z,0
2017-12-02T02:56:35.070Z,0
2017-12-02T02:57:45.060Z,0
2017-12-02T02:58:54.787Z,0
2017-12-02T03:00:04.244Z,0
2017-12-02T03:01:14.240Z,0
2017-12-02T03:02:23.989Z,0
2017-12-02T03:03:33.987Z,0
2017-12-02T03:04:43.849Z,0
2017-12-02T03:05:53.991Z,0
2017-12-02T03:07:03.561Z,0
2017-12-02T03:08:13.170Z,0
2017-12-02T03:09:23.062Z,0
2017-12-02T03:10:33.220Z,0
2017-12-02T03:11:43.162Z,0
2017-12-02T03:12:53.086Z,0
2017-12-02T03:14:02.958Z,0
2017-12-02T03:15:12.524Z,0
2017-12-02T03:16:22.385Z,0
2017-12-02T03:17:32.261Z,0
2017-12-02T03:18:42.437Z,0
2017-12-02T03:19:52.292Z,0
2017-12-02T03:21:02.404Z,0
2017-12-02T03:22:12.221Z,0
2017-12-02T03:23:22.154Z,0
2017-12-02T03:24:31.219Z,0
2017-12-02T03:25:41.024Z,0
2017-12-02T03:26:51.411Z,0
2017-12-02T03:28:01.514Z,0
2017-12-02T03:29:11.141Z,0
2017-12-02T03:30:21.114Z,0
2017-12-02T03:31:30.896Z,0
2017-12-02T03:32:40.944Z,0
2017-12-02T03:33:50.535Z,0
2017-12-02T03:35:00.345Z,0
2017-12-02T03:36:10.485Z,0
2017-12-02T03:37:20.013Z,0
2017-12-02T03:38:29.317Z,0
2017-12-02T03:39:38.627Z,0
2017-12-02T03:40:48.502Z,0
2017-12-02T03:41:58.318Z,0
2017-12-02T03:43:07.623Z,0
2017-12-02T03:44:17.240Z,0
2017-12-02T03:45:27.354Z,0
2017-12-02T03:46:37.449Z,0
2017-12-02T03:47:47.017Z,0
2017-12-02T03:48:56.798Z,0
2017-12-02T03:50:06.708Z,0
2017-12-02T03:51:15.975Z,0
2017-12-02T03:52:26.139Z,0
2017-12-02T03:53:35.654Z,0
2017-12-02T03:54:45.198Z,0
2017-12-02T03:55:55.067Z,0
2017-12-02T03:57:04.921Z,0
2017-12-02T03:58:14.806Z,0
2017-12-02T03:59:25.013Z,0
2017-12-02T04:00:34.672Z,0
2017-12-02T04:01:44.314Z,0
2017-12-02T04:02:54.172Z,0
2017-12-02T04:04:03.786Z,0
2017-12-02T04:05:13.927Z,0
2017-12-02T04:06:23.515Z,0
2017-12-02T04:07:33.428Z,0
2017-12-02T04:08:42.818Z,0
2017-12-02T04:09:53.015Z,0
2017-12-02T04:11:03.248Z,0
2017-12-02T04:12:12.888Z,0
2017-12-02T04:13:22.907Z,0
2017-12-02T04:14:33.144Z,0
2017-12-02T04:15:42.709Z,0
2017-12-02T04:16:52.854Z,0
2017-12-02T04:18:02.252Z,0
2017-12-02T04:19:11.862Z,0
2017-12-02T04:20:21.725Z,0
2017-12-02T04:21:31.055Z,0
2017-12-02T04:22:40.922Z,0
2017-12-02T04:23:51.068Z,0
2017-12-02T04:25:00.713Z,0
2017-12-02T04:26:10.613Z,0
2017-12-02T04:27:21.059Z,0
2017-12-02T04:28:30.681Z,0
2017-12-02T04:29:40.264Z,0
2017-12-02T04:30:50.411Z,0
2017-12-02T04:32:00.494Z,0
2017-12-02T04:33:10.123Z,0
2017-12-02T04:34:20.378Z,0
2017-12-02T04:35:29.685Z,0
2017-12-02T04:36:39.515Z,0
2017-12-02T04:37:49.195Z,0
2017-12-02T04:38:58.828Z,0
2017-12-02T04:40:08.484Z,0
2017-12-02T04:41:17.863Z,0
2017-12-02T04:42:27.452Z,0
2017-12-02T04:43:37.317Z,0
2017-12-02T04:44:47.166Z,0
2017-12-02T04:45:56.820Z,0
2017-12-02T04:47:06.320Z,0
2017-12-02T04:48:16.151Z,0
2017-12-02T04:49:25.401Z,0
2017-12-02T04:50:34.980Z,0
2017-12-02T04:51:44.861Z,0
2017-12-02T04:52:54.809Z,0
2017-12-02T04:54:04.389Z,0
2017-12-02T04:55:14.246Z,0
2017-12-02T04:56:23.764Z,0
2017-12-02T04:57:33.293Z,0
2017-12-02T04:58:43.131Z,0
2017-12-02T04:59:53.010Z,0
2017-12-02T05:01:02.805Z,0
2017-12-02T05:02:12.032Z,0
2017-12-02T05:03:22.152Z,0
2017-12-02T05:04:32.037Z,0
2017-12-02T05:05:41.874Z,0
2017-12-02T05:06:51.665Z,0
2017-12-02T05:08:01.187Z,0
2017-12-02T05:09:11.136Z,0
2017-12-02T05:10:20.418Z,0
2017-12-02T05:11:29.849Z,0
2017-12-02T05:12:39.466Z,0
2017-12-02T05:13:49.596Z,0
2017-12-02T05:14:59.767Z,0
2017-12-02T05:16:09.258Z,0
2017-12-02T05:17:18.821Z,0
2017-12-02T05:18:28.434Z,0
2017-12-02T05:19:38.228Z,0
2017-12-02T05:20:48.041Z,0
2017-12-02T05:21:57.046Z,0
2017-12-02T05:23:06.593Z,0
2017-12-02T05:24:16.434Z,0
2017-12-02T05:25:26.064Z,0
2017-12-02T05:26:35.334Z,0
2017-12-02T05:27:45.203Z,0
2017-12-02T05:28:55.055Z,0
2017-12-02T05:30:05.025Z,0
2017-12-02T05:31:14.658Z,0
2017-12-02T05:32:24.574Z,0
2017-12-02T05:33:34.515Z,0
2017-12-02T05:34:43.848Z,0
2017-12-02T05:35:53.440Z,0
2017-12-02T05:37:03.483Z,0
2017-12-02T05:38:13.377Z,0
2017-12-02T05:39:23.558Z,0
2017-12-02T05:40:33.291Z,0
2017-12-02T05:41:42.828Z,0
2017-12-02T05:42:52.379Z,0
2017-12-02T05:44:02.280Z,0
2017-12-02T05:45:11.539Z,0
2017-12-02T05:46:21.340Z,0
2017-12-02T05:47:31.385Z,0
2017-12-02T05:48:41.505Z,0
2017-12-02T05:49:51.592Z,0
2017-12-02T05:51:01.392Z,0
2017-12-02T05:52:11.503Z,0
2017-12-02T05:53:21.036Z,0
2017-12-02T05:54:31.115Z,0
2017-12-02T05:55:41.015Z,0
2017-12-02T05:56:50.871Z,0
2017-12-02T05:58:01.002Z,0
2017-12-02T05:59:11.165Z,0
2017-12-02T06:00:20.996Z,0
2017-12-02T06:01:30.555Z,0
2017-12-02T06:02:40.414Z,0
2017-12-02T06:03:50.346Z,0
2017-12-02T06:04:59.808Z,0
2017-12-02T06:06:09.316Z,0
2017-12-02T06:07:19.219Z,0
2017-12-02T06:08:29.058Z,0
2017-12-02T06:09:38.642Z,0
2017-12-02T06:10:48.615Z,0
2017-12-02T06:11:58.445Z,0
2017-12-02T06:13:08.667Z,0
2017-12-02T06:14:18.309Z,0
2017-12-02T06:15:28.482Z,0
2017-12-02T06:16:37.870Z,0
2017-12-02T06:17:46.896Z,0
2017-12-02T06:18:56.488Z,0
2017-12-02T06:20:06.309Z,0
2017-12-02T06:21:15.857Z,0
2017-12-02T06:22:25.803Z,0
2017-12-02T06:23:36.006Z,0
2017-12-02T06:24:45.514Z,0
2017-12-02T06:25:55.619Z,0
2017-12-02T06:27:05.735Z,0
2017-12-02T06:28:15.856Z,0
2017-12-02T06:29:26.134Z,0
2017-12-02T06:30:36.029Z,0
2017-12-02T06:31:45.366Z,0
2017-12-02T06:32:55.273Z,0
2017-12-02T06:34:05.453Z,0
2017-12-02T06:35:15.445Z,0
2017-12-02T06:36:25.185Z,0
2017-12-02T06:37:34.923Z,0
2017-12-02T06:38:45.149Z,0
2017-12-02T06:39:54.686Z,0
2017-12-02T06:41:04.153Z,0
2017-12-02T06:42:14.155Z,0
2017-12-02T06:43:23.625Z,0
2017-12-02T06:44:33.373Z,0
2017-12-02T06:45:43.112Z,0
2017-12-02T06:46:52.591Z,0
2017-12-02T06:48:02.595Z,0
2017-12-02T06:49:12.151Z,0
2017-12-02T06:50:22.174Z,0
2017-12-02T06:51:32.177Z,0
2017-12-02T06:52:41.917Z,0
2017-12-02T06:53:51.645Z,0
2017-12-02T06:55:01.644Z,0
2017-12-02T06:56:11.451Z,0
2017-12-02T06:57:21.206Z,0
2017-12-02T06:58:30.934Z,0
2017-12-02T06:59:40.402Z,0
2017-12-02T07:00:50.404Z,0
2017-12-02T07:02:00.139Z,0
2017-12-02T07:03:09.338Z,0
2017-12-02T07:04:18.816Z,0
2017-12-02T07:05:28.555Z,0
2017-12-02T07:06:38.015Z,0
2017-12-02T07:07:48.030Z,0
2017-12-02T07:08:58.033Z,0
2017-12-02T07:10:07.510Z,0
2017-12-02T07:11:17.247Z,0
2017-12-02T07:12:27.350Z,0
2017-12-02T07:13:37.375Z,0
2017-12-02T07:14:47.487Z,0
2017-12-02T07:15:57.571Z,0
2017-12-02T07:17:07.314Z,0
2017-12-02T07:18:17.307Z,0
2017-12-02T07:19:26.778Z,0
2017-12-02T07:20:36.621Z,0
2017-12-02T07:21:46.420Z,0
2017-12-02T07:22:56.413Z,0
2017-12-02T07:24:06.429Z,0
2017-12-02T07:25:16.465Z,0
2017-12-02T07:26:26.477Z,0
2017-12-02T07:27:36.213Z,0
2017-12-02T07:28:45.959Z,0
2017-12-02T07:29:55.797Z,0
2017-12-02T07:31:05.280Z,0
2017-12-02T07:32:15.384Z,0
2017-12-02T07:33:25.487Z,0
2017-12-02T07:34:35.545Z,0
2017-12-02T07:35:45.554Z,0
2017-12-02T07:36:55.278Z,0
2017-12-02T07:38:04.741Z,0
2017-12-02T07:39:14.739Z,0
2017-12-02T07:40:24.751Z,0
2017-12-02T07:41:34.490Z,0
2017-12-02T07:42:43.974Z,5
2017-12-02T07:43:53.457Z,5
2017-12-02T07:45:02.915Z,5
2017-12-02T07:46:12.917Z,5
2017-12-02T07:47:22.386Z,5
2017-12-02T07:48:32.113Z,5
2017-12-02T07:49:41.584Z,5
2017-12-02T07:50:51.314Z,5
2017-12-02T07:52:01.066Z,5
2017-12-02T07:53:10.805Z,5
2017-12-02T07:54:20.544Z,5
2017-12-02T07:55:30.547Z,5
2017-12-02T07:56:40.554Z,5
2017-12-02T07:57:50.285Z,5
2017-12-02T07:59:00.286Z,5
2017-12-02T08:00:09.753Z,5
2017-12-02T08:01:19.759Z,5
2017-12-02T08:02:29.785Z,5
2017-12-02T08:03:39.058Z,10
2017-12-02T08:04:49.096Z,10
2017-12-02T08:05:59.118Z,10
2017-12-02T08:07:08.662Z,10
2017-12-02T08:08:18.114Z,10
2017-12-02T08:09:27.845Z,10
2017-12-02T08:10:37.853Z,10
2017-12-02T08:11:47.594Z,10
2017-12-02T08:12:57.601Z,10
2017-12-02T08:14:07.346Z,10
2017-12-02T08:15:17.074Z,10
2017-12-02T08:16:26.798Z,10
2017-12-02T08:17:36.528Z,10
2017-12-02T08:18:46.278Z,10
2017-12-02T08:19:55.474Z,10
2017-12-02T08:21:05.055Z,15
2017-12-02T08:22:14.264Z,15
2017-12-02T08:23:24.053Z,15
2017-12-02T08:24:33.267Z,15
2017-12-02T08:25:43.026Z,15
2017-12-02T08:26:52.756Z,15
2017-12-02T08:28:02.744Z,15
2017-12-02T08:29:12.498Z,15
2017-12-02T08:30:22.250Z,15
2017-12-02T08:31:31.717Z,15
2017-12-02T08:32:41.719Z,15
2017-12-02T08:33:51.732Z,15
2017-12-02T08:35:01.888Z,15
2017-12-02T08:36:11.378Z,15
2017-12-02T08:37:21.386Z,15
2017-12-02T08:38:31.395Z,15
2017-12-02T08:39:40.951Z,15
2017-12-02T08:40:50.901Z,20
2017-12-02T08:42:00.839Z,20
2017-12-02T08:43:10.743Z,15
2017-12-02T08:44:20.236Z,15
2017-12-02T08:45:30.281Z,15
2017-12-02T08:46:40.024Z,15
2017-12-02T08:47:49.491Z,15
2017-12-02T08:48:59.221Z,15
2017-12-02T08:50:08.474Z,20
2017-12-02T08:51:18.208Z,20
2017-12-02T08:52:27.686Z,15
2017-12-02T08:53:37.702Z,15
2017-12-02T08:54:47.182Z,15
2017-12-02T08:55:57.197Z,20
2017-12-02T08:57:06.406Z,20
2017-12-02T08:58:15.919Z,20
2017-12-02T08:59:25.648Z,20
2017-12-02T09:00:35.635Z,20
2017-12-02T09:01:45.639Z,20
2017-12-02T09:02:55.642Z,20
2017-12-02T09:04:05.637Z,20
2017-12-02T09:05:15.378Z,20
2017-12-02T09:06:25.102Z,25
2017-12-02T09:07:34.831Z,25
2017-12-02T09:08:45.178Z,25
2017-12-02T09:09:54.653Z,25
2017-12-02T09:11:04.382Z,25
2017-12-02T09:12:13.856Z,25
2017-12-02T09:13:23.852Z,25
2017-12-02T09:14:33.319Z,25
2017-12-02T09:15:43.060Z,25
2017-12-02T09:16:53.075Z,25
2017-12-02T09:18:03.078Z,25
2017-12-02T09:19:13.080Z,25
2017-12-02T09:20:22.854Z,25
2017-12-02T09:21:32.325Z,20
2017-12-02T09:22:42.098Z,20
2017-12-02T09:23:51.839Z,25
2017-12-02T09:25:01.828Z,25
2017-12-02T09:26:11.304Z,25
2017-12-02T09:27:20.821Z,25
2017-12-02T09:28:30.813Z,20
2017-12-02T09:29:40.812Z,20
2017-12-02T09:30:50.281Z,20
2017-12-02T09:32:00.016Z,25
2017-12-02T09:33:09.478Z,20
2017-12-02T09:34:18.413Z,25
2017-12-02T09:35:28.144Z,25
2017-12-02T09:36:37.872Z,25
2017-12-02T09:37:47.349Z,25
2017-12-02T09:38:57.094Z,25
2017-12-02T09:40:07.109Z,25
2017-12-02T09:41:16.831Z,25
2017-12-02T09:42:26.568Z,25
2017-12-02T09:43:36.291Z,25
2017-12-02T09:44:46.038Z,25
2017-12-02T09:45:55.772Z,20
2017-12-02T09:47:05.529Z,20
2017-12-02T09:48:15.035Z,20
2017-12-02T09:49:25.032Z,20
2017-12-02T09:50:35.285Z,20
2017-12-02T09:51:44.495Z,25
2017-12-02T09:52:54.233Z,25
2017-12-02T09:54:03.960Z,25
2017-12-02T09:55:13.966Z,25
2017-12-02T09:56:23.708Z,25
2017-12-02T09:57:33.715Z,30
2017-12-02T09:58:43.181Z,30
2017-12-02T09:59:53.184Z,30
2017-12-02T10:01:02.917Z,25
2017-12-02T10:02:12.377Z,25
2017-12-02T10:03:22.370Z,30
2017-12-02T10:04:32.106Z,30
2017-12-02T10:05:42.105Z,30
2017-12-02T10:06:52.102Z,30
2017-12-02T10:08:02.110Z,25
2017-12-02T10:09:12.110Z,30
2017-12-02T10:10:21.638Z,30
2017-12-02T10:11:31.620Z,30
2017-12-02T10:12:41.429Z,30
2017-12-02T10:13:51.425Z,30
2017-12-02T10:15:00.930Z,30
2017-12-02T10:16:10.232Z,25
2017-12-02T10:17:19.967Z,30
2017-12-02T10:18:29.704Z,30
2017-12-02T10:19:39.435Z,5
2017-12-02T10:20:48.905Z,25
2017-12-02T10:21:58.645Z,30
2017-12-02T10:23:08.368Z,35
2017-12-02T10:24:17.844Z,35
2017-12-02T10:25:27.844Z,35
2017-12-02T10:26:37.606Z,35
2017-12-02T10:27:47.503Z,35
2017-12-02T10:28:57.506Z,35
2017-12-02T10:30:06.971Z,35
2017-12-02T10:31:16.696Z,35
2017-12-02T10:32:26.432Z,35
2017-12-02T10:33:36.162Z,35
2017-12-02T10:34:45.906Z,40
2017-12-02T10:35:55.123Z,40
2017-12-02T10:37:04.516Z,40
2017-12-02T10:38:14.653Z,40
2017-12-02T10:39:24.859Z,40
2017-12-02T10:40:34.931Z,45
2017-12-02T10:41:44.814Z,45
2017-12-02T10:42:54.990Z,50
2017-12-02T10:44:04.906Z,50
2017-12-02T10:45:14.789Z,45
2017-12-02T10:46:24.951Z,45
2017-12-02T10:47:34.806Z,45
2017-12-02T10:48:44.808Z,40
2017-12-02T10:49:54.715Z,40
2017-12-02T10:51:04.783Z,35
2017-12-02T10:52:14.573Z,35
2017-12-02T10:53:24.309Z,35
2017-12-02T10:54:34.103Z,30
2017-12-02T10:55:44.105Z,30
2017-12-02T10:56:53.984Z,35
2017-12-02T10:58:03.559Z,35
2017-12-02T10:59:13.120Z,35
2017-12-02T11:00:23.137Z,35
2017-12-02T11:01:33.727Z,35
2017-12-02T11:02:43.844Z,35
2017-12-02T11:03:53.694Z,30
2017-12-02T11:05:03.538Z,30
2017-12-02T11:06:13.305Z,30
2017-12-02T11:07:22.892Z,25
2017-12-02T11:08:32.907Z,25
2017-12-02T11:09:42.932Z,25
2017-12-02T11:10:52.716Z,25
2017-12-02T11:12:02.868Z,30
2017-12-02T11:13:12.738Z,30
2017-12-02T11:14:22.756Z,30
2017-12-02T11:15:32.233Z,30
2017-12-02T11:16:41.692Z,30
2017-12-02T11:17:51.154Z,30
2017-12-02T11:19:00.089Z,30
2017-12-02T11:20:09.554Z,30
2017-12-02T11:21:19.548Z,30
2017-12-02T11:22:29.558Z,30
2017-12-02T11:23:39.550Z,35
2017-12-02T11:24:49.555Z,35
2017-12-02T11:25:59.566Z,35
2017-12-02T11:27:09.582Z,35
2017-12-02T11:28:19.314Z,40
2017-12-02T11:29:29.317Z,35
2017-12-02T11:30:39.317Z,35
2017-12-02T11:31:49.069Z,35
2017-12-02T11:32:59.062Z,35
2017-12-02T11:34:08.576Z,35
2017-12-02T11:35:18.043Z,35
2017-12-02T11:36:27.523Z,40
2017-12-02T11:37:37.069Z,40
2017-12-02T11:38:46.353Z,40
2017-12-02T11:39:56.092Z,40
2017-12-02T11:41:05.816Z,45
2017-12-02T11:42:15.809Z,40
2017-12-02T11:43:25.548Z,40
2017-12-02T11:44:35.289Z,35
2017-12-02T11:45:45.299Z,35
2017-12-02T11:46:55.544Z,35
2017-12-02T11:48:05.384Z,35
2017-12-02T11:49:15.077Z,40
2017-12-02T11:50:24.542Z,40
2017-12-02T11:51:34.285Z,35
2017-12-02T11:52:44.027Z,35
2017-12-02T11:53:53.849Z,35
2017-12-02T11:55:03.299Z,35
2017-12-02T11:56:12.889Z,35
2017-12-02T11:57:22.934Z,35
2017-12-02T11:58:32.947Z,35
2017-12-02T11:59:42.423Z,30
2017-12-02T12:00:52.427Z,30
2017-12-02T12:02:02.157Z,30
2017-12-02T12:03:11.919Z,30
2017-12-02T12:04:21.453Z,35
2017-12-02T12:05:31.525Z,35
2017-12-02T12:06:41.664Z,35
2017-12-02T12:07:52.306Z,35
2017-12-02T12:09:01.806Z,35
2017-12-02T12:10:11.026Z,30
2017-12-02T12:11:21.079Z,30
2017-12-02T12:12:30.608Z,30
2017-12-02T12:13:40.495Z,30
2017-12-02T12:14:50.006Z,30
2017-12-02T12:15:59.479Z,30
2017-12-02T12:17:08.744Z,30
2017-12-02T12:18:18.834Z,30
2017-12-02T12:19:28.360Z,30
2017-12-02T12:20:38.444Z,30
2017-12-02T12:21:48.421Z,30
2017-12-02T12:22:57.893Z,30
2017-12-02T12:24:07.093Z,30
2017-12-02T12:25:16.909Z,25
2017-12-02T12:26:26.903Z,25
2017-12-02T12:27:37.213Z,25
2017-12-02T12:28:47.043Z,25
2017-12-02T12:29:56.504Z,25
2017-12-02T12:31:06.583Z,25
2017-12-02T12:32:16.501Z,30
2017-12-02T12:33:26.296Z,30
2017-12-02T12:34:36.061Z,30
2017-12-02T12:35:45.905Z,30
2017-12-02T12:36:55.424Z,25
2017-12-02T12:38:05.155Z,25
2017-12-02T12:39:15.233Z,25
2017-12-02T12:40:24.983Z,25
2017-12-02T12:41:35.058Z,30
2017-12-02T12:42:44.850Z,30
2017-12-02T12:43:54.637Z,30
2017-12-02T12:45:04.102Z,30
2017-12-02T12:46:13.701Z,25
2017-12-02T12:47:23.278Z,25
2017-12-02T12:48:33.544Z,25
2017-12-02T12:49:43.304Z,25
2017-12-02T12:50:53.044Z,25
2017-12-02T12:52:02.532Z,25
2017-12-02T12:53:12.541Z,25
2017-12-02T12:54:22.009Z,25
2017-12-02T12:55:32.014Z,25
2017-12-02T12:56:42.021Z,25
2017-12-02T12:57:52.051Z,25
2017-12-02T12:59:01.538Z,25
2017-12-02T13:00:11.545Z,25
2017-12-02T13:01:21.572Z,25
2017-12-02T13:02:31.569Z,25
2017-12-02T13:03:41.559Z,20
2017-12-02T13:04:51.300Z,20
2017-12-02T13:06:01.304Z,20
2017-12-02T13:07:11.036Z,20
2017-12-02T13:08:20.501Z,20
2017-12-02T13:09:30.513Z,20
2017-12-02T13:10:40.247Z,20
2017-12-02T13:11:50.009Z,20
2017-12-02T13:12:59.746Z,20
2017-12-02T13:14:08.950Z,20
2017-12-02T13:15:18.414Z,15
2017-12-02T13:16:28.410Z,15
2017-12-02T13:17:38.136Z,15
2017-12-02T13:18:48.145Z,15
2017-12-02T13:19:57.879Z,20
2017-12-02T13:21:07.605Z,20
2017-12-02T13:22:17.351Z,20
2017-12-02T13:23:27.359Z,15
2017-12-02T13:24:36.896Z,15
2017-12-02T13:25:46.915Z,15
2017-12-02T13:26:56.928Z,15
2017-12-02T13:28:06.142Z,15
2017-12-02T13:29:15.113Z,15
2017-12-02T13:30:24.915Z,15
2017-12-02T13:31:34.715Z,10
2017-12-02T13:32:44.174Z,10
2017-12-02T13:33:53.932Z,10
2017-12-02T13:35:02.868Z,10
2017-12-02T13:36:12.871Z,10
2017-12-02T13:37:22.678Z,10
2017-12-02T13:38:32.418Z,10
2017-12-02T13:39:42.143Z,10
2017-12-02T13:40:51.881Z,10
2017-12-02T13:42:01.871Z,10
2017-12-02T13:43:11.625Z,10
2017-12-02T13:44:21.420Z,15
2017-12-02T13:45:31.153Z,15
2017-12-02T13:46:41.239Z,10
2017-12-02T13:47:50.985Z,10
2017-12-02T13:49:00.450Z,10
2017-12-02T13:50:10.189Z,10
2017-12-02T13:51:19.774Z,10
2017-12-02T13:52:29.851Z,10
2017-12-02T13:53:38.990Z,10
2017-12-02T13:54:49.038Z,10
2017-12-02T13:55:58.786Z,10
2017-12-02T13:57:08.527Z,10
2017-12-02T13:58:18.257Z,10
2017-12-02T13:59:27.765Z,10
2017-12-02T14:00:37.772Z,10
2017-12-02T14:01:47.253Z,10
2017-12-02T14:02:56.994Z,10
2017-12-02T14:04:06.497Z,10
2017-12-02T14:05:16.614Z,10
2017-12-02T14:06:26.743Z,10
2017-12-02T14:07:36.176Z,10
2017-12-02T14:08:46.060Z,10
2017-12-02T14:09:56.268Z,10
2017-12-02T14:11:05.544Z,10
2017-12-02T14:12:15.025Z,10
2017-12-02T14:13:24.494Z,10
2017-12-02T14:14:34.243Z,10
2017-12-02T14:15:43.716Z,10
2017-12-02T14:16:53.463Z,5
2017-12-02T14:18:03.246Z,5
2017-12-02T14:19:13.020Z,5
2017-12-02T14:20:23.070Z,5
2017-12-02T14:21:33.089Z,5
2017-12-02T14:22:43.096Z,5
2017-12-02T14:23:53.127Z,5
2017-12-02T14:25:02.889Z,5
2017-12-02T14:26:12.361Z,5
2017-12-02T14:27:22.093Z,5
2017-12-02T14:28:31.822Z,5
2017-12-02T14:29:41.816Z,5
2017-12-02T14:30:51.845Z,5
2017-12-02T14:32:01.872Z,5
2017-12-02T14:33:11.080Z,5
2017-12-02T14:34:21.074Z,5
2017-12-02T14:35:30.842Z,5
2017-12-02T14:36:40.305Z,5
2017-12-02T14:37:50.156Z,5
2017-12-02T14:39:00.195Z,5
2017-12-02T14:40:09.928Z,5
2017-12-02T14:41:19.660Z,5
2017-12-02T14:42:28.689Z,5
2017-12-02T14:43:38.549Z,5
2017-12-02T14:44:48.394Z,5
2017-12-02T14:45:58.290Z,5
2017-12-02T14:47:07.887Z,5
2017-12-02T14:48:17.849Z,5
2017-12-02T14:49:27.232Z,5
2017-12-02T14:50:37.486Z,5
2017-12-02T14:51:47.008Z,5
2017-12-02T14:52:57.374Z,5
2017-12-02T14:54:07.336Z,5
2017-12-02T14:55:17.273Z,0
2017-12-02T14:56:26.741Z,0
2017-12-02T14:57:36.489Z,0
2017-12-02T14:58:45.978Z,0
2017-12-02T14:59:56.035Z,0
2017-12-02T15:01:05.774Z,0
2017-12-02T15:02:15.608Z,0
2017-12-02T15:03:25.596Z,0
2017-12-02T15:04:35.741Z,0
2017-12-02T15:05:45.758Z,0
2017-12-02T15:06:55.760Z,0
2017-12-02T15:08:05.768Z,0
2017-12-02T15:09:15.830Z,0
2017-12-02T15:10:25.383Z,0
2017-12-02T15:11:34.900Z,0
2017-12-02T15:12:44.886Z,0
2017-12-02T15:13:55.136Z,0
2017-12-02T15:15:05.000Z,0
2017-12-02T15:16:14.745Z,0
2017-12-02T15:17:24.395Z,0
2017-12-02T15:18:34.448Z,0
2017-12-02T15:19:44.576Z,0
2017-12-02T15:20:54.618Z,0
2017-12-02T15:22:04.092Z,0
2017-12-02T15:23:14.093Z,0
2017-12-02T15:24:23.844Z,0
2017-12-02T15:25:33.580Z,0
2017-12-02T15:26:43.330Z,0
2017-12-02T15:27:53.343Z,0
2017-12-02T15:29:03.340Z,0
2017-12-02T15:30:12.838Z,0
2017-12-02T15:31:22.910Z,0
2017-12-02T15:32:32.376Z,0
2017-12-02T15:33:42.143Z,0
2017-12-02T15:34:52.172Z,0
2017-12-02T15:36:02.182Z,0
2017-12-02T15:37:12.104Z,0
2017-12-02T15:38:21.673Z,0
2017-12-02T15:39:31.596Z,0
2017-12-02T15:40:40.938Z,0
2017-12-02T15:41:50.690Z,0
2017-12-02T15:43:00.579Z,0
2017-12-02T15:44:10.194Z,0
2017-12-02T15:45:20.265Z,0
2017-12-02T15:46:30.335Z,0
2017-12-02T15:47:40.088Z,0
2017-12-02T15:48:50.013Z,0
2017-12-02T15:50:00.111Z,0
2017-12-02T15:51:09.923Z,0
2017-12-02T15:52:19.408Z,0
2017-12-02T15:53:29.417Z,0
2017-12-02T15:54:39.670Z,0
2017-12-02T15:55:49.410Z,0
2017-12-02T15:56:59.452Z,0
2017-12-02T15:58:09.290Z,0
2017-12-02T15:59:19.290Z,0
2017-12-02T16:00:29.037Z,0
2017-12-02T16:01:38.771Z,0
2017-12-02T16:02:48.776Z,0
2017-12-02T16:03:58.264Z,0
2017-12-02T16:05:07.943Z,0
2017-12-02T16:06:17.721Z,0
2017-12-02T16:07:27.719Z,0
2017-12-02T16:08:37.450Z,0
2017-12-02T16:09:47.187Z,0
2017-12-02T16:10:56.399Z,0
2017-12-02T16:12:06.155Z,0
2017-12-02T16:13:15.624Z,0
2017-12-02T16:14:25.630Z,0
2017-12-02T16:15:35.666Z,0
2017-12-02T16:16:45.434Z,0
2017-12-02T16:17:55.523Z,0
2017-12-02T16:19:05.543Z,0
2017-12-02T16:20:15.317Z,0
2017-12-02T16:21:25.305Z,0
2017-12-02T16:22:35.313Z,0
2017-12-02T16:23:45.046Z,0
2017-12-02T16:24:54.583Z,0
2017-12-02T16:26:04.506Z,0
2017-12-02T16:27:14.308Z,0
2017-12-02T16:28:23.773Z,0
2017-12-02T16:29:32.975Z,0
2017-12-02T16:30:43.033Z,0
2017-12-02T16:31:52.766Z,0
2017-12-02T16:33:02.502Z,0
2017-12-02T16:34:12.567Z,0
2017-12-02T16:35:22.590Z,0
2017-12-02T16:36:32.601Z,0
2017-12-02T16:37:42.855Z,0
2017-12-02T16:38:52.326Z,0
2017-12-02T16:40:02.338Z,0
2017-12-02T16:41:12.344Z,0
2017-12-02T16:42:22.074Z,0
2017-12-02T16:43:32.108Z,0
2017-12-02T16:44:41.836Z,0
2017-12-02T16:45:51.898Z,0
2017-12-02T16:47:01.628Z,0
2017-12-02T16:48:10.827Z,0
2017-12-02T16:49:20.319Z,0
2017-12-02T16:50:30.317Z,0
2017-12-02T16:51:40.329Z,0
2017-12-02T16:52:50.059Z,0
2017-12-02T16:53:59.793Z,0
2017-12-02T16:55:08.987Z,0
2017-12-02T16:56:18.462Z,0
2017-12-02T16:57:28.470Z,0
2017-12-02T16:58:38.470Z,0